Latest Coastal Weather Observations for Hamilton Island

IDQ60701

Issued at 7:15 pm EST Friday 30 January 2015 (issued every 10 minutes, with the page automatically refreshed every 10 minutes)

About coastal observations | Map of coastal stations | Coastal observations for QLD | Marine services | Other Formats
Station Details ID: 033106 Name: HAMILTON ISLAND AIRPORT Lat: -20.37 Lon: 148.95 Height: 58.66 m
Data from the previous 72 hours. | See also: Recent months at Hamilton Island
Date/Time
EST
Temp

°C
Wind Pressure Rain
since 9am
mm
Weather Cloud Vis
km
Sea
Height
m
Swell
Dir
 
Speed
knots
Gust
knots
hPa Trend Height
m
Period
s
Dir
30/07:00pm 27.3 ESE 14 19 1007.1 - 0.0 - Partly cloudy 10 - - - -
30/06:30pm 27.4 ESE 16 19 1006.6 - 0.0 - Partly cloudy 10 - - - -
30/06:00pm 27.5 ESE 16 19 1005.8 - 0.0 - - 10 - - - -
30/05:30pm 27.4 ESE 15 19 1005.8 - 0.0 - - 10 - - - -
30/05:00pm 28.2 ESE 14 16 1005.3 - 0.0 - - 10 - - - -
30/04:30pm 28.1 ESE 14 16 1005.3 - 0.0 - Partly cloudy 10 - - - -
30/04:00pm 27.7 ESE 13 15 1005.4 - 0.0 - Cloudy 10 - - - -
30/03:30pm 29.2 ESE 15 17 1005.8 - 0.0 - Partly cloudy 10 - - - -
30/03:00pm 28.6 ESE 17 20 1005.4 - 0.0 - - 10 - - - -
30/02:30pm 28.8 ESE 19 23 1005.8 - 0.0 - - 10 - - - -
30/02:00pm 29.1 ESE 16 18 1006.1 - 0.0 - - 10 - - - -
30/01:30pm 29.4 ESE 14 17 1006.4 - 0.0 - - 10 - - - -
30/01:00pm 29.2 ESE 17 20 1006.6 - 0.0 - - 10 - - - -
30/12:30pm 29.5 ESE 15 17 1007.0 - 0.0 - - 10 - - - -
30/12:00pm 30.0 SE 15 18 1006.8 - 0.0 - Cloudy 10 - - - -
30/11:30am 29.1 SSE 14 18 1007.6 - 0.0 - Partly cloudy 10 - - - -
30/11:21am 28.7 E 8 12 1007.8 - 0.0 - Partly cloudy 10 - - - -
30/11:00am 26.0 ESE 21 23 1008.0 - 0.0 - Partly cloudy 10 - - - -
30/10:56am 27.0 SSE 17 20 1008.2 - 0.0 - Partly cloudy 10 - - - -
30/10:30am 29.0 SSE 15 18 1008.3 - 0.0 - Partly cloudy 10 - - - -
30/10:00am 27.9 SSE 16 19 1008.1 - 0.0 - Partly cloudy 10 - - - -
30/09:30am 27.9 SE 14 16 1008.1 - 0.0 - Partly cloudy 10 - - - -
30/09:00am 29.3 ESE 12 15 1007.7 - 0.0 - - 10 - - - -
30/08:30am 29.2 ESE 14 15 1007.7 - 0.0 - - 10 - - - -
30/08:00am 28.9 SE 15 17 1007.5 - 0.0 - Partly cloudy 10 - - - -
30/07:30am 28.3 SE 14 17 1007.3 - 0.0 - - 10 - - - -
30/07:00am 28.1 SE 14 17 1007.1 - 0.0 - Partly cloudy 10 - - - -
30/06:30am 27.1 ESE 12 15 1006.7 - 0.0 - Partly cloudy 10 - - - -
30/06:00am 26.8 ESE 13 15 1006.1 - 0.0 - Cloudy 10 - - - -
30/05:30am 26.7 ESE 14 17 1006.0 - 0.0 - - 10 - - - -
30/05:00am 26.8 ESE 14 17 1005.8 - 0.0 - Partly cloudy 10 - - - -
30/04:30am 26.6 ESE 14 16 1005.5 - 0.0 - Partly cloudy 10 - - - -
30/04:00am 26.7 ESE 16 19 1005.2 - 0.0 - Partly cloudy 10 - - - -
30/03:48am 26.8 SE 17 21 1005.2 - 0.0 - Partly cloudy 10 - - - -
30/03:30am 26.6 ESE 15 19 1005.1 - 0.0 - Partly cloudy 10 - - - -
30/03:11am 26.8 ESE 17 20 1004.9 - 0.0 - Partly cloudy 10 - - - -
30/03:08am 26.9 ESE 17 20 1005.0 - 0.0 - Partly cloudy 10 - - - -
30/03:00am 26.8 ESE 16 20 1004.6 - 0.0 - Cloudy 10 - - - -
30/02:30am 26.9 ESE 19 23 1005.0 - 0.0 - Partly cloudy 10 - - - -
30/02:28am 26.9 ESE 19 23 1005.0 - 0.0 - Partly cloudy 10 - - - -
30/02:00am 26.8 ESE 18 23 1005.5 - 0.0 - Partly cloudy 10 - - - -
30/01:30am 26.9 SE 17 20 1005.8 - 0.0 - Partly cloudy 10 - - - -
30/01:00am 27.0 SE 17 19 1006.4 - 0.0 - - 10 - - - -
30/12:30am 27.0 SE 16 17 1006.9 - 0.0 - Partly cloudy 10 - - - -
30/12:00am 27.1 SE 14 17 1007.0 - 0.0 - Cloudy 10 - - - -
 
Date/Time
EST
Temp

°C
Wind Pressure Rain
since 9am
mm
Weather Cloud Vis
km
Sea
Height
m
Swell
Dir
 
Speed
knots
Gust
knots
hPa Trend Height
m
Period
s
Dir
29/11:30pm 27.2 SE 15 17 1007.6 - 0.0 - Partly cloudy 10 - - - -
29/11:00pm 27.2 SE 18 21 1007.7 - 0.0 - Partly cloudy 10 - - - -
29/10:30pm 27.1 SE 19 22 1007.5 - 0.0 - Partly cloudy 10 - - - -
29/10:00pm 27.3 SE 19 21 1007.3 - 0.0 - Partly cloudy 10 - - - -
29/09:30pm 27.3 SE 17 20 1007.1 - 0.0 - Partly cloudy 10 - - - -
29/09:00pm 27.3 SE 19 22 1006.3 - 0.0 - Cloudy 10 - - - -
29/08:30pm 27.5 ESE 20 23 1006.5 - 0.0 - Partly cloudy 10 - - - -
29/08:00pm 27.5 ESE 17 21 1006.2 - 0.0 - Partly cloudy 10 - - - -
29/07:30pm 27.5 ESE 18 20 1006.1 - 0.0 - Partly cloudy 10 - - - -
29/07:00pm 27.6 ESE 17 21 1005.3 - 0.0 - Partly cloudy 10 - - - -
29/06:30pm 27.6 ESE 15 17 1005.4 - 0.0 - Partly cloudy 10 - - - -
29/06:00pm 27.7 ESE 13 17 1004.8 - 0.0 - Cloudy 10 - - - -
29/05:30pm 27.7 ESE 13 15 1004.7 - 0.0 - - 10 - - - -
29/05:00pm 28.4 ESE 13 14 1003.9 - 0.0 - - 10 - - - -
29/04:30pm 28.6 ESE 13 17 1003.8 - 0.0 - - 10 - - - -
29/04:00pm 28.2 ESE 14 16 1003.6 - 0.0 - - 10 - - - -
29/03:30pm 28.9 ESE 10 13 1003.8 - 0.0 - - 10 - - - -
29/03:00pm 29.1 SE 9 11 1003.7 - 0.0 - - 10 - - - -
29/02:30pm 29.1 ESE 11 14 1004.0 - 0.0 - - 10 - - - -
29/02:00pm 28.8 ESE 15 17 1004.3 - 0.0 - - 10 - - - -
29/01:30pm 29.2 ESE 16 18 1004.3 - 0.0 - Partly cloudy 10 - - - -
29/01:00pm 29.6 SE 16 18 1004.6 - 0.0 - Partly cloudy 10 - - - -
29/12:30pm 29.9 ESE 11 13 1004.8 - 0.0 - Partly cloudy 10 - - - -
29/12:07pm 29.7 ESE 13 14 1004.9 - 0.0 - Partly cloudy 10 - - - -
29/12:00pm 29.0 ESE 12 14 1004.5 - 0.0 - Cloudy 10 - - - -
29/11:30am 28.1 SE 11 13 1005.2 - 0.0 - Partly cloudy 10 - - - -
29/11:16am 29.4 SE 10 12 1005.3 - 0.0 - Partly cloudy 10 - - - -
29/11:00am 30.0 ESE 10 11 1005.3 - 0.0 - - 10 - - - -
29/10:30am 29.6 ESE 10 12 1005.4 - 0.0 - - 10 - - - -
29/10:00am 29.2 ESE 13 14 1005.4 - 0.0 - Partly cloudy 10 - - - -
29/09:30am 29.6 SE 13 17 1005.2 - 0.0 - Partly cloudy 10 - - - -
29/09:00am 29.0 SSE 11 13 1004.8 - 0.0 - Cloudy 10 - - - -
29/08:58am 28.8 SSE 10 13 1005.2 - 0.0 - Partly cloudy 10 - - - -
29/08:30am 28.0 S 9 12 1004.9 - 0.0 - Partly cloudy 10 - - - -
29/08:28am 28.0 S 9 12 1004.9 - 0.0 - Partly cloudy 10 - - - -
29/08:12am 28.4 S 9 13 1004.9 - 0.0 - Partly cloudy 10 - - - -
29/08:00am 27.5 S 10 13 1004.9 - 0.0 - Partly cloudy 10 - - - -
29/07:30am 27.6 S 10 14 1004.8 - 0.0 - Partly cloudy 10 - - - -
29/07:14am 28.3 SE 10 13 1004.8 - 0.0 - Partly cloudy 10 - - - -
29/07:00am 28.1 E 9 12 1004.7 - 0.0 - Partly cloudy 10 - - - -
29/06:35am 27.2 ESE 11 14 1004.5 - 0.0 - Partly cloudy 10 - - - -
29/06:30am 27.1 E 8 11 1004.5 - 0.0 - Partly cloudy 10 - - - -
29/06:00am 26.4 ESE 9 17 1003.5 - 0.0 - Cloudy 10 - - - -
29/05:30am 26.4 SSE 10 12 1003.3 - 0.0 - Partly cloudy 10 - - - -
29/05:24am 26.3 SSE 10 12 1003.3 - 0.0 - Partly cloudy 10 - - - -
29/05:00am 26.3 SSE 9 11 1003.2 - 0.0 - Partly cloudy 10 - - - -
29/04:55am 26.2 SSE 10 13 1003.1 - 0.0 - Partly cloudy 10 - - - -
29/04:30am 26.4 SSE 13 16 1003.0 - 0.0 - Partly cloudy 10 - - - -
29/04:00am 26.7 SE 10 13 1002.8 - 0.0 - - 10 - - - -
29/03:30am 26.6 SE 11 13 1002.4 - 0.0 - Partly cloudy 10 - - - -
29/03:16am 26.4 ESE 13 16 1002.4 - 0.0 - Partly cloudy 10 - - - -
29/03:00am 26.2 SE 14 16 1002.2 - 0.0 - Cloudy 10 - - - -
29/02:30am 26.0 SE 9 10 1002.7 - 0.0 - Partly cloudy 10 - - - -
29/02:13am 26.4 SSE 10 13 1002.9 - 0.0 - Partly cloudy 10 - - - -
29/02:00am 26.4 SE 9 11 1003.0 - 0.0 - Cloudy 10 - - - -
29/01:30am 26.1 ESE 8 10 1003.3 - 0.0 - Cloudy 10 - - - -
29/01:00am 26.0 ESE 12 14 1003.4 - 0.0 - Partly cloudy 10 - - - -
29/12:44am 26.2 E 16 19 1003.7 - 0.0 - Partly cloudy 10 - - - -
29/12:30am 26.4 ESE 18 20 1003.9 - 0.0 - Partly cloudy 10 - - - -
29/12:16am 26.5 ESE 13 17 1004.1 - 0.0 - Partly cloudy 10 - - - -
29/12:00am 26.2 ESE 14 17 1003.8 - 0.0 - Cloudy 10 - - - -
 
Date/Time
EST
Temp

°C
Wind Pressure Rain
since 9am
mm
Weather Cloud Vis
km
Sea
Height
m
Swell
Dir
 
Speed
knots
Gust
knots
hPa Trend Height
m
Period
s
Dir
28/11:30pm 25.4 SE 18 22 1004.0 - 0.0 - Partly cloudy 10 - - - -
28/11:00pm 25.3 SE 22 26 1004.2 - 0.0 - Partly cloudy 10 - - - -
28/10:46pm 25.2 ESE 20 27 1004.3 - 0.0 - Partly cloudy 9 - - - -
28/10:38pm 24.9 SE 26 36 1004.4 - 0.0 - Partly cloudy 8 - - - -
28/10:30pm 25.5 SE 27 36 1004.2 - 0.0 - Partly cloudy 10 - - - -
28/10:26pm 25.8 SE 22 33 1004.2 - 0.0 - Partly cloudy 10 - - - -
28/10:25pm 26.0 SE 20 25 1004.3 - 0.0 - Partly cloudy 10 - - - -
28/10:17pm 26.5 S 21 25 1004.1 - 0.0 - Partly cloudy 10 - - - -
28/10:00pm 28.0 S 6 8 1003.9 - 0.0 - Partly cloudy 10 - - - -
28/09:30pm 28.0 E 2 4 1003.3 - 0.0 - - 10 - - - -
28/09:00pm 27.7 S 5 6 1002.3 - 0.0 - - 10 - - - -
28/08:30pm 27.8 SSE 5 7 1002.6 - 0.0 - Partly cloudy 10 - - - -
28/08:00pm 27.8 SE 1 4 1002.3 - 0.0 - Partly cloudy 10 - - - -
28/07:30pm 28.0 ESE 5 6 1001.9 - 0.0 - - 10 - - - -
28/07:00pm 28.6 CALM 0 0 1001.4 - 0.0 - - 10 - - - -
28/06:30pm 28.9 NW 5 8 1000.9 - 0.0 - - 10 - - - -
28/06:00pm 28.1 WNW 8 11 1000.3 - 0.0 - - 10 - - - -
28/05:30pm 27.9 WNW 10 13 1000.2 - 0.0 - Partly cloudy 10 - - - -
28/05:00pm 28.0 WNW 14 21 1000.1 - 0.0 - Partly cloudy 10 - - - -
28/04:30pm 29.7 NW 9 12 1000.1 - 0.0 - Partly cloudy 10 - - - -
28/04:00pm 30.6 NW 8 10 999.7 - 0.0 - - 10 - - - -
28/03:30pm 31.8 NW 9 12 999.6 - 0.0 - - 10 - - - -
28/03:00pm 31.4 NW 9 12 999.8 - 0.0 - - 10 - - - -
28/02:30pm 31.8 E 6 11 1000.4 - 0.0 - Partly cloudy 10 - - - -
28/02:00pm 30.6 E 9 11 1000.8 - 0.0 - Partly cloudy 10 - - - -
28/01:30pm 30.8 ESE 9 12 1001.0 - 0.0 - Partly cloudy 10 - - - -
28/01:00pm 31.2 ESE 10 11 1001.1 - 0.0 - Cloudy 10 - - - -
28/12:30pm 30.4 ESE 11 13 1001.2 - 0.0 - - 10 - - - -
28/12:00pm 30.7 ESE 9 11 1001.1 - 0.0 - - 10 - - - -
28/11:30am 30.4 ESE 7 8 1001.9 - 0.0 - - 10 - - - -
28/11:00am 29.9 ESE 7 8 1002.1 - 0.0 - - 10 - - - -
28/10:30am 30.0 SE 6 7 1002.4 - 0.0 - - 10 - - - -
28/10:00am 30.3 SE 5 7 1002.4 - 0.0 - - 10 - - - -
28/09:30am 30.2 SE 6 8 1002.6 - 0.0 - - 10 - - - -
28/09:00am 30.0 ESE 5 6 1002.2 - 0.0 - - 10 - - - -
28/08:30am 29.6 SE 4 5 1002.5 - 0.0 - - 10 - - - -
28/08:00am 28.8 NW 1 4 1002.4 - 0.0 - - 10 - - - -
28/07:30am 28.0 NNW 2 4 1002.1 - 0.0 - - 10 - - - -
28/07:00am 27.7 N 1 4 1001.9 - 0.0 - - 10 - - - -
28/06:30am 26.6 NNW 7 7 1001.8 - 0.0 - - 10 - - - -
28/06:00am 26.6 N 5 6 1001.4 - 0.0 - - 10 - - - -
28/05:30am 26.5 NW 4 5 1001.4 - 0.0 - - 10 - - - -
28/05:00am 26.5 N 5 6 1001.0 - 0.0 - - 10 - - - -
28/04:30am 26.7 CALM 0 0 1000.9 - 0.0 - - 10 - - - -
28/04:00am 26.8 NW 1 3 1001.0 - 0.0 - - - - - - -
28/03:30am 26.9 N 3 4 1001.0 - 0.0 - - 10 - - - -
28/03:00am 27.1 N 6 8 1000.6 - 0.0 - - 10 - - - -
28/02:30am 27.0 N 5 8 1001.0 - 0.0 - - 10 - - - -
28/02:00am 27.2 NNE 6 8 1001.2 - 0.0 - - 10 - - - -
28/01:30am 27.3 NNE 6 8 1002.0 - 0.0 - - 10 - - - -
28/01:00am 27.5 NNE 5 6 1002.5 - 0.0 - Partly cloudy 10 - - - -
28/12:30am 27.6 NE 6 7 1003.0 - 0.0 - Partly cloudy 10 - - - -
28/12:00am 27.9 ENE 6 8 1002.7 - 0.0 - Cloudy 10 - - - -
 
Date/Time
EST
Temp

°C
Wind Pressure Rain
since 9am
mm
Weather Cloud Vis
km
Sea
Height
m
Swell
Dir
 
Speed
knots
Gust
knots
hPa Trend Height
m
Period
s
Dir
27/11:30pm 28.0 ENE 7 8 1003.3 - 0.0 - - 10 - - - -
27/11:00pm 28.1 ENE 7 9 1003.6 - 0.0 - - 10 - - - -
27/10:30pm 28.4 E 11 13 1003.9 - 0.0 - - 10 - - - -
27/10:00pm 28.4 E 9 11 1004.0 - 0.0 - Partly cloudy 10 - - - -
27/09:30pm 28.4 E 9 11 1003.9 - 0.0 - Partly cloudy 10 - - - -
27/09:00pm 28.4 E 9 12 1003.2 - 0.0 - - 10 - - - -
27/08:30pm 28.4 E 8 11 1003.6 - 0.0 - Partly cloudy 10 - - - -
27/08:00pm 28.3 ESE 10 12 1003.3 - 0.0 - Partly cloudy 10 - - - -
27/07:30pm 28.4 E 11 13 1002.4 - 0.0 - Partly cloudy 10 - - - -

Other Formats:

Comma delimited format used in spreadsheet applications
http://www.bom.gov.au/fwo/IDQ60701/IDQ60701.94368.axf

JavaScript Object Notation format (JSON) in row-major order
http://www.bom.gov.au/fwo/IDQ60701/IDQ60701.94368.json